Time;durP1;ratioP1;P1;durP2;ratioP2;P2;SDS_P1;SDS_P2;PMS_P1;PMS_P2;Temp;Humidity;BMP_temperature;BMP_pressure;BME280_temperature;BME280_humidity;BME280_pressure;Samples;Min_cycle;Max_cycle;Signal;HPM_P1;HPM_P2
2022/11/10 00:00:35;;;;;;;5.00;2.05;;;9.20;82.10;;;;;;5033917;28;20160;-71
2022/11/10 00:03:06;;;;;;;5.78;1.90;;;9.20;81.40;;;;;;5033233;28;20040;-71
2022/11/10 00:05:32;;;;;;;6.68;1.83;;;9.20;81.30;;;;;;5033748;28;20033;-71
2022/11/10 00:08:03;;;;;;;5.13;1.80;;;9.20;79.90;;;;;;5032335;28;20029;-72
2022/11/10 00:10:29;;;;;;;5.57;2.10;;;9.20;80.10;;;;;;5041870;28;20116;-71
2022/11/10 00:12:59;;;;;;;4.28;1.80;;;9.30;79.60;;;;;;5023008;28;20057;-70
2022/11/10 00:18:09;;;;;;;5.25;1.80;;;9.20;80.40;;;;;;5034010;28;20040;-71
2022/11/10 00:20:35;;;;;;;6.85;1.95;;;9.20;80.10;;;;;;5029154;28;20034;-71
2022/11/10 00:23:00;;;;;;;7.85;2.33;;;9.10;80.50;;;;;;5033058;28;20216;-72
2022/11/10 00:25:26;;;;;;;4.68;1.77;;;9.00;80.00;;;;;;5032776;28;20458;-71
2022/11/10 00:27:52;;;;;;;6.60;1.70;;;8.90;79.80;;;;;;5024497;28;20129;-71
2022/11/10 00:30:18;;;;;;;7.20;1.90;;;8.90;79.40;;;;;;5046784;28;20116;-70
2022/11/10 00:32:47;;;;;;;6.35;1.80;;;8.80;79.40;;;;;;5037186;28;20083;-71
2022/11/10 00:35:12;;;;;;;3.78;1.58;;;8.90;77.80;;;;;;5028620;28;20109;-71
2022/11/10 00:37:38;;;;;;;5.82;1.70;;;8.90;78.50;;;;;;5018712;28;20391;-71
2022/11/10 00:40:04;;;;;;;7.45;2.47;;;8.80;78.50;;;;;;5035805;28;20104;-71
2022/11/10 00:42:30;;;;;;;4.82;2.03;;;8.90;77.90;;;;;;5042175;28;20117;-71
2022/11/10 00:44:55;;;;;;;7.40;1.60;;;8.80;78.20;;;;;;5031890;28;20120;-70
2022/11/10 00:47:21;;;;;;;5.10;1.85;;;8.80;77.90;;;;;;5053450;28;20376;-71
2022/11/10 00:49:47;;;;;;;4.05;1.70;;;8.80;77.80;;;;;;5031921;28;20025;-70
2022/11/10 00:52:12;;;;;;;6.05;2.25;;;8.80;77.80;;;;;;5036744;28;20422;-70
2022/11/10 00:54:38;;;;;;;6.80;1.70;;;8.80;78.40;;;;;;5034713;28;20025;-70
2022/11/10 00:57:03;;;;;;;6.57;2.00;;;8.80;77.40;;;;;;5029934;28;20026;-71
2022/11/10 00:59:29;;;;;;;5.43;1.98;;;8.80;77.10;;;;;;5037790;28;20025;-71
2022/11/10 01:01:55;;;;;;;8.18;2.00;;;8.80;77.20;;;;;;5035609;28;20034;-70
2022/11/10 01:04:20;;;;;;;4.60;1.90;;;8.80;77.80;;;;;;5035754;28;20468;-71
2022/11/10 01:06:47;;;;;;;4.55;2.33;;;8.80;76.70;;;;;;5035624;28;20095;-70
2022/11/10 01:09:13;;;;;;;3.40;1.50;;;8.70;76.20;;;;;;5037354;28;20033;-70
2022/11/10 01:11:39;;;;;;;5.88;2.15;;;8.70;74.90;;;;;;5018346;28;20029;-70
2022/11/10 01:14:04;;;;;;;5.65;2.10;;;8.80;74.20;;;;;;5036622;28;20029;-70
2022/11/10 01:16:33;;;;;;;6.25;2.10;;;8.80;74.20;;;;;;5034901;28;20087;-70
2022/11/10 01:19:01;;;;;;;8.00;2.35;;;8.80;74.50;;;;;;5030947;28;20481;-70
2022/11/10 01:21:28;;;;;;;6.32;1.73;;;8.80;74.00;;;;;;5012530;28;20080;-70
2022/11/10 01:23:54;;;;;;;6.50;2.10;;;8.80;73.40;;;;;;5027477;28;20033;-70
2022/11/10 01:26:20;;;;;;;8.23;1.58;;;8.70;73.30;;;;;;5048734;28;20075;-70
2022/11/10 01:28:46;;;;;;;6.65;2.15;;;8.70;72.10;;;;;;5032107;28;20581;-70
2022/11/10 01:31:16;;;;;;;4.82;2.35;;;8.80;72.40;;;;;;5030024;28;20022;-70
2022/11/10 01:33:42;;;;;;;5.20;1.60;;;8.70;72.60;;;;;;5032944;28;20105;-70
2022/11/10 01:36:09;;;;;;;7.80;2.22;;;8.70;71.90;;;;;;5029094;28;20104;-69
2022/11/10 01:38:37;;;;;;;7.57;2.10;;;8.70;72.40;;;;;;5030221;28;20361;-69
2022/11/10 01:41:05;;;;;;;3.35;1.58;;;8.60;73.10;;;;;;5009700;28;20095;-71
2022/11/10 01:43:31;;;;;;;6.68;2.08;;;8.60;71.30;;;;;;5024133;28;20029;-71
2022/11/10 01:46:01;;;;;;;4.03;1.55;;;8.60;71.80;;;;;;5040887;28;20018;-71
2022/11/10 01:48:50;;;;;;;4.50;1.80;;;8.70;70.70;;;;;;5034766;28;20029;-70
2022/11/10 01:51:23;;;;;;;6.63;1.92;;;8.80;71.30;;;;;;5029118;28;20419;-71
2022/11/10 01:53:54;;;;;;;8.32;1.90;;;8.80;71.50;;;;;;5017971;28;20034;-71
2022/11/10 01:56:23;;;;;;;6.25;2.10;;;8.80;71.40;;;;;;5028319;28;20084;-70
2022/11/10 01:58:55;;;;;;;6.93;1.90;;;8.80;72.20;;;;;;5024534;28;20409;-70
2022/11/10 02:01:22;;;;;;;5.53;1.90;;;8.80;70.90;;;;;;5012001;28;20061;-70
2022/11/10 02:03:55;;;;;;;5.57;2.10;;;8.90;71.30;;;;;;5031036;28;20033;-70
2022/11/10 02:06:27;;;;;;;7.07;1.80;;;8.90;72.20;;;;;;5033298;28;20375;-70
2022/11/10 02:08:54;;;;;;;8.20;2.35;;;8.90;72.50;;;;;;5042043;28;20325;-70
2022/11/10 02:11:24;;;;;;;3.95;2.08;;;8.90;73.10;;;;;;5021647;28;20026;-70
2022/11/10 02:13:50;;;;;;;4.38;1.70;;;8.80;73.20;;;;;;5024003;28;20034;-70
2022/11/10 02:16:17;;;;;;;9.25;2.30;;;8.90;72.90;;;;;;5018691;28;20052;-70
2022/11/10 02:18:43;;;;;;;6.80;2.42;;;8.90;73.30;;;;;;5026169;28;20403;-70
2022/11/10 02:21:14;;;;;;;6.47;2.10;;;8.90;73.00;;;;;;5034359;28;20037;-71
2022/11/10 02:23:44;;;;;;;5.57;1.92;;;9.00;72.90;;;;;;5021758;28;20034;-70
2022/11/10 02:26:14;;;;;;;4.80;2.00;;;9.00;73.70;;;;;;5023268;28;20423;-69
2022/11/10 02:28:40;;;;;;;6.18;1.92;;;9.00;73.70;;;;;;5029101;28;20168;-70
2022/11/10 02:31:08;;;;;;;7.78;1.70;;;9.00;73.90;;;;;;5034295;28;20446;-69
2022/11/10 02:33:34;;;;;;;4.40;1.60;;;9.10;73.50;;;;;;5032451;28;20040;-70
2022/11/10 02:36:00;;;;;;;6.05;1.92;;;9.00;74.90;;;;;;5029914;28;20029;-70
2022/11/10 02:38:26;;;;;;;6.32;1.77;;;9.00;75.10;;;;;;5033017;28;20338;-69
2022/11/10 02:40:51;;;;;;;6.85;2.60;;;9.00;75.60;;;;;;5036327;28;20032;-69
2022/11/10 02:43:18;;;;;;;8.05;2.25;;;8.80;76.80;;;;;;5023411;28;20055;-69
2022/11/10 02:45:44;;;;;;;4.03;1.60;;;8.70;75.80;;;;;;5021638;28;20327;-70
2022/11/10 02:48:11;;;;;;;5.72;1.73;;;8.80;73.90;;;;;;5015475;28;20052;-69
2022/11/10 02:50:37;;;;;;;6.18;1.73;;;8.90;74.50;;;;;;5028489;28;20052;-69
2022/11/10 02:53:03;;;;;;;6.40;1.95;;;9.00;75.00;;;;;;5031808;28;20447;-69
2022/11/10 02:55:29;;;;;;;9.70;2.20;;;8.90;77.00;;;;;;5033093;28;20418;-69
2022/11/10 02:57:55;;;;;;;7.70;2.20;;;8.70;78.30;;;;;;5034819;28;20029;-69
2022/11/10 03:00:21;;;;;;;6.68;2.20;;;8.50;78.60;;;;;;5029986;28;20018;-70
2022/11/10 03:02:47;;;;;;;6.63;1.80;;;8.20;78.50;;;;;;5026245;28;20026;-69
2022/11/10 03:05:12;;;;;;;3.85;1.90;;;8.10;75.50;;;;;;5028235;28;20029;-69
2022/11/10 03:07:38;;;;;;;6.05;2.10;;;8.10;75.80;;;;;;5036078;28;20086;-69
2022/11/10 03:10:06;;;;;;;6.78;1.73;;;8.10;74.20;;;;;;5032972;28;20037;-70
2022/11/10 03:12:32;;;;;;;8.43;2.63;;;8.20;74.10;;;;;;5022695;28;20022;-70
2022/11/10 03:14:58;;;;;;;3.72;1.80;;;8.10;75.80;;;;;;5020256;28;20320;-69
2022/11/10 03:17:23;;;;;;;6.85;2.50;;;8.00;75.30;;;;;;5018773;28;20573;-70
2022/11/10 03:19:50;;;;;;;5.10;1.92;;;7.80;75.70;;;;;;5024119;28;20086;-70
2022/11/10 03:22:15;;;;;;;3.95;1.73;;;7.70;75.00;;;;;;5031666;28;20028;-70
2022/11/10 03:24:44;;;;;;;5.30;1.80;;;7.90;72.50;;;;;;5032477;28;20029;-70
2022/11/10 03:27:09;;;;;;;8.30;2.28;;;8.00;72.20;;;;;;5033307;28;20049;-69
2022/11/10 03:29:35;;;;;;;7.45;2.38;;;8.20;72.10;;;;;;5027171;28;20124;-70
2022/11/10 03:32:01;;;;;;;8.18;2.40;;;8.30;71.90;;;;;;5033273;28;20385;-69
2022/11/10 03:34:26;;;;;;;7.68;2.20;;;8.40;72.30;;;;;;5026864;28;20058;-70
2022/11/10 03:36:55;;;;;;;7.60;2.45;;;8.50;72.40;;;;;;5028613;28;20029;-70
2022/11/10 03:39:22;;;;;;;7.90;3.30;;;8.50;73.10;;;;;;5031314;28;20426;-69
2022/11/10 03:41:48;;;;;;;4.90;1.98;;;8.30;75.70;;;;;;5031164;28;20026;-70
2022/11/10 03:44:13;;;;;;;5.50;2.13;;;8.10;73.20;;;;;;5030333;28;20033;-69
2022/11/10 03:46:39;;;;;;;4.68;1.83;;;8.20;72.60;;;;;;5025488;28;20422;-70
2022/11/10 03:49:08;;;;;;;7.75;2.80;;;8.10;72.40;;;;;;5025207;28;20025;-69
2022/11/10 03:51:33;;;;;;;6.75;2.85;;;8.20;73.00;;;;;;5031664;28;20112;-70
2022/11/10 03:54:02;;;;;;;9.75;2.80;;;8.10;73.50;;;;;;5026142;28;20100;-70
2022/11/10 03:56:27;;;;;;;5.85;2.65;;;8.10;73.10;;;;;;5033366;28;20464;-70
2022/11/10 03:58:53;;;;;;;5.70;1.88;;;8.00;73.40;;;;;;5026065;28;20034;-70
2022/11/10 04:01:18;;;;;;;6.25;2.42;;;7.90;72.60;;;;;;5033060;28;20033;-70
2022/11/10 04:03:47;;;;;;;6.22;2.55;;;7.80;72.80;;;;;;5031785;28;20323;-70
2022/11/10 04:08:59;;;;;;;5.50;2.20;;;7.70;72.60;;;;;;5033288;28;20326;-70
2022/11/10 04:16:57;;;;;;;4.28;1.90;;;7.50;72.20;;;;;;5035158;28;20056;-70
2022/11/10 04:19:22;;;;;;;5.82;2.45;;;7.40;71.60;;;;;;5037416;28;20482;-70
2022/11/10 04:21:51;;;;;;;7.28;2.92;;;7.50;70.40;;;;;;5015328;28;20144;-70
2022/11/10 04:24:18;;;;;;;9.20;3.90;;;7.50;71.10;;;;;;5024675;28;20033;-70
2022/11/10 04:26:46;;;;;;;10.75;2.92;;;7.40;71.80;;;;;;5014459;28;20361;-69
2022/11/10 04:29:13;;;;;;;6.70;2.70;;;7.40;71.10;;;;;;5030283;28;20025;-69
2022/11/10 04:31:40;;;;;;;10.15;2.83;;;7.40;70.70;;;;;;5015420;28;20467;-69
2022/11/10 04:34:14;;;;;;;6.43;2.95;;;7.50;70.20;;;;;;5035308;28;20122;-69
2022/11/10 04:36:41;;;;;;;7.00;2.80;;;7.50;70.70;;;;;;5013417;28;20125;-68
2022/11/10 04:39:08;;;;;;;10.15;3.50;;;7.50;70.50;;;;;;5033045;28;20355;-70
2022/11/10 04:41:35;;;;;;;8.70;3.38;;;7.50;70.10;;;;;;5032682;28;20433;-70
2022/11/10 04:44:01;;;;;;;11.13;3.97;;;7.50;70.10;;;;;;5035135;28;20033;-70
2022/11/10 04:46:32;;;;;;;8.25;3.47;;;7.40;70.50;;;;;;5025616;28;20026;-70
2022/11/10 04:48:59;;;;;;;10.15;2.72;;;7.40;70.20;;;;;;5036520;28;20079;-70
2022/11/10 04:51:30;;;;;;;7.88;3.03;;;7.30;70.20;;;;;;5035544;28;20036;-71
2022/11/10 04:53:56;;;;;;;10.38;3.40;;;7.30;69.80;;;;;;5031361;28;20024;-70
2022/11/10 04:56:23;;;;;;;9.38;3.60;;;7.20;70.10;;;;;;5031654;28;20441;-70
2022/11/10 04:58:50;;;;;;;10.23;3.08;;;7.10;70.50;;;;;;5038565;28;20030;-70
2022/11/10 05:01:21;;;;;;;5.90;2.38;;;7.10;69.60;;;;;;5032894;28;20055;-70
2022/11/10 05:03:48;;;;;;;9.60;3.03;;;7.10;69.50;;;;;;5034023;28;20079;-70
2022/11/10 05:06:14;;;;;;;9.10;3.10;;;7.10;70.00;;;;;;5032331;28;20319;-70
2022/11/10 05:08:41;;;;;;;10.00;3.28;;;6.90;71.10;;;;;;5034115;28;20041;-70
2022/11/10 05:11:07;;;;;;;7.47;2.72;;;6.70;70.80;;;;;;5035374;28;20549;-70
2022/11/10 05:13:35;;;;;;;7.65;3.35;;;6.70;70.30;;;;;;5026739;28;20073;-69
2022/11/10 05:16:01;;;;;;;10.57;4.47;;;6.60;70.20;;;;;;5030467;28;20053;-69
2022/11/10 05:18:27;;;;;;;17.35;9.23;;;6.60;70.20;;;;;;5035487;28;20330;-69
2022/11/10 05:20:53;;;;;;;7.63;3.50;;;6.50;70.40;;;;;;5029238;28;20043;-69
2022/11/10 05:23:38;;;;;;;9.52;3.65;;;6.30;70.50;;;;;;5033250;28;20021;-69
2022/11/10 05:26:12;;;;;;;9.95;3.40;;;6.30;70.20;;;;;;5027521;28;20029;-70
2022/11/10 05:28:42;;;;;;;11.77;4.40;;;6.20;70.10;;;;;;5028794;28;20069;-70
2022/11/10 05:31:09;;;;;;;9.95;4.38;;;6.10;69.90;;;;;;5031927;28;20076;-70
2022/11/10 05:33:36;;;;;;;11.23;3.72;;;6.20;69.70;;;;;;5028295;28;20052;-69
2022/11/10 05:36:03;;;;;;;10.93;3.15;;;6.20;69.70;;;;;;5042909;28;20404;-70
2022/11/10 05:38:30;;;;;;;14.25;5.35;;;6.20;69.60;;;;;;5025083;28;20361;-70
2022/11/10 05:40:55;;;;;;;10.73;4.18;;;6.20;69.50;;;;;;5032118;28;20386;-70
2022/11/10 05:43:22;;;;;;;9.27;3.08;;;6.20;69.50;;;;;;5024411;28;20049;-70
2022/11/10 05:45:50;;;;;;;10.48;4.97;;;6.20;69.60;;;;;;5017409;28;20433;-70
2022/11/10 05:48:16;;;;;;;15.57;5.45;;;6.10;69.60;;;;;;5027474;28;20080;-70
2022/11/10 05:50:42;;;;;;;13.70;5.25;;;6.10;69.50;;;;;;5033645;28;20026;-69
2022/11/10 05:53:08;;;;;;;12.38;6.85;;;6.10;69.50;;;;;;5032092;28;20033;-70
2022/11/10 05:55:34;;;;;;;13.88;5.47;;;5.90;69.90;;;;;;5029746;28;20034;-70
2022/11/10 05:58:00;;;;;;;12.57;5.60;;;6.00;69.20;;;;;;5030914;28;20033;-71
2022/11/10 06:00:27;;;;;;;16.38;5.97;;;6.00;69.40;;;;;;5034314;28;20021;-70
2022/11/10 06:03:05;;;;;;;12.70;6.97;;;5.90;69.70;;;;;;5026979;28;20034;-70
2022/11/10 06:05:33;;;;;;;10.52;5.43;;;5.80;69.50;;;;;;5031378;28;20429;-70
2022/11/10 06:07:59;;;;;;;15.57;4.57;;;5.70;69.80;;;;;;5031056;28;20026;-69
2022/11/10 06:10:25;;;;;;;10.27;4.40;;;5.60;69.70;;;;;;5029320;28;20085;-70
2022/11/10 06:12:52;;;;;;;13.65;4.40;;;5.70;69.20;;;;;;5032870;28;20042;-70
2022/11/10 06:15:17;;;;;;;10.35;3.50;;;5.80;69.30;;;;;;5035076;28;20097;-70
2022/11/10 06:17:46;;;;;;;11.63;4.65;;;5.90;69.20;;;;;;5026857;28;20105;-70
2022/11/10 06:20:13;;;;;;;10.32;4.30;;;6.00;69.40;;;;;;5023118;28;20028;-70
2022/11/10 06:22:39;;;;;;;9.65;5.32;;;6.00;69.60;;;;;;5016705;28;20037;-70
2022/11/10 06:25:06;;;;;;;14.52;4.60;;;5.90;69.80;;;;;;5016696;28;20045;-70
2022/11/10 06:27:32;;;;;;;16.45;5.03;;;5.70;69.70;;;;;;5024345;28;20049;-70
2022/11/10 06:30:00;;;;;;;10.75;4.43;;;5.70;69.40;;;;;;5036536;28;20034;-70
2022/11/10 06:32:26;;;;;;;10.93;4.03;;;5.70;69.40;;;;;;5037149;28;20374;-70
2022/11/10 06:34:51;;;;;;;7.93;3.90;;;5.70;69.50;;;;;;5027491;28;20052;-70
2022/11/10 06:37:17;;;;;;;16.23;5.50;;;5.70;69.40;;;;;;5033977;28;20021;-70
2022/11/10 06:39:43;;;;;;;10.40;4.38;;;5.70;69.40;;;;;;5035457;28;20025;-70
2022/11/10 06:42:08;;;;;;;11.38;3.67;;;5.80;69.30;;;;;;5041274;28;20030;-70
2022/11/10 06:44:34;;;;;;;14.18;5.20;;;6.00;69.40;;;;;;5038681;28;20029;-70
2022/11/10 06:46:59;;;;;;;9.57;5.38;;;6.20;69.60;;;;;;5041430;28;20037;-70
2022/11/10 06:49:25;;;;;;;15.23;5.13;;;6.30;69.50;;;;;;5032625;28;20901;-70
2022/11/10 06:51:51;;;;;;;13.32;5.28;;;6.50;69.40;;;;;;5028334;28;20146;-70
2022/11/10 06:54:17;;;;;;;14.25;4.47;;;6.60;69.40;;;;;;5042441;28;20057;-70
2022/11/10 06:56:42;;;;;;;7.28;3.58;;;6.60;69.40;;;;;;5044184;28;20018;-70
2022/11/10 06:59:08;;;;;;;11.55;4.53;;;6.70;69.30;;;;;;5034619;28;20026;-70
2022/11/10 07:01:34;;;;;;;11.10;5.50;;;6.60;69.30;;;;;;5036029;28;20021;-70
2022/11/10 07:04:00;;;;;;;10.27;3.95;;;6.70;69.20;;;;;;5019325;28;20418;-70
2022/11/10 07:06:25;;;;;;;14.80;9.23;;;6.90;69.30;;;;;;5037747;28;20022;-70
2022/11/10 07:08:51;;;;;;;20.52;14.65;;;6.80;69.30;;;;;;5015465;28;20026;-70
2022/11/10 07:11:16;;;;;;;13.43;8.65;;;6.80;69.30;;;;;;5046166;28;20116;-70
2022/11/10 07:13:42;;;;;;;17.65;8.98;;;6.80;69.20;;;;;;5024780;28;20114;-70
2022/11/10 07:16:08;;;;;;;10.32;5.43;;;6.90;69.30;;;;;;5031923;28;20029;-70
2022/11/10 07:18:37;;;;;;;19.98;10.35;;;6.90;69.30;;;;;;5031233;28;20037;-70
2022/11/10 07:21:04;;;;;;;20.73;11.98;;;7.00;69.10;;;;;;5012915;28;20026;-70
2022/11/10 07:23:42;;;;;;;14.25;8.05;;;7.00;69.30;;;;;;5030731;28;20061;-70
2022/11/10 07:26:07;;;;;;;13.45;6.18;;;7.10;69.10;;;;;;5024796;28;20299;-69
2022/11/10 07:28:34;;;;;;;12.35;5.45;;;7.30;69.20;;;;;;5017722;28;20080;-70
2022/11/10 07:31:05;;;;;;;10.50;4.95;;;7.50;69.30;;;;;;4998466;28;20025;-69
2022/11/10 07:33:31;;;;;;;15.07;7.82;;;7.70;69.30;;;;;;5015832;28;20054;-70
2022/11/10 07:35:59;;;;;;;8.80;5.18;;;7.70;69.10;;;;;;5016441;28;20364;-70
2022/11/10 07:38:25;;;;;;;18.98;7.30;;;7.70;68.90;;;;;;5014735;28;20026;-70
2022/11/10 07:40:53;;;;;;;11.07;4.50;;;7.70;68.90;;;;;;5000633;28;20034;-70
2022/11/10 07:43:20;;;;;;;17.13;4.38;;;7.70;68.90;;;;;;5008312;28;20066;-70
2022/11/10 07:45:49;;;;;;;13.32;6.10;;;7.90;68.90;;;;;;5001696;28;20419;-70
2022/11/10 07:48:16;;;;;;;16.70;7.25;;;7.70;69.10;;;;;;5008977;28;20038;-70
2022/11/10 07:50:41;;;;;;;24.13;6.47;;;7.60;68.80;;;;;;5031275;28;20037;-70
2022/11/10 07:53:13;;;;;;;17.80;5.70;;;7.60;68.80;;;;;;5017535;28;20030;-70
2022/11/10 07:55:40;;;;;;;9.32;5.05;;;7.60;68.80;;;;;;5015619;28;20028;-70
2022/11/10 07:58:07;;;;;;;12.35;5.03;;;7.50;68.90;;;;;;5019031;28;20026;-70
2022/11/10 08:00:36;;;;;;;10.07;4.57;;;7.50;68.80;;;;;;5017498;28;20038;-70
2022/11/10 08:03:20;;;;;;;7.72;3.70;;;7.60;68.80;;;;;;5021185;28;20018;-69
2022/11/10 08:05:55;;;;;;;8.98;5.40;;;7.80;68.80;;;;;;4998641;28;20053;-70
2022/11/10 08:08:24;;;;;;;14.43;5.65;;;7.90;68.80;;;;;;5021163;28;20160;-70
2022/11/10 08:10:49;;;;;;;10.65;5.07;;;8.10;68.80;;;;;;4999783;28;20026;-70
2022/11/10 08:13:15;;;;;;;13.40;5.40;;;8.40;68.80;;;;;;4999947;28;20301;-70
2022/11/10 08:15:41;;;;;;;11.95;4.57;;;8.60;69.10;;;;;;5000374;28;20019;-70
2022/11/10 08:18:18;;;;;;;8.27;3.13;;;9.00;69.40;;;;;;4999323;28;20037;-69
2022/11/10 08:20:44;;;;;;;12.35;2.83;;;9.00;69.20;;;;;;5011446;28;20030;-70
2022/11/10 08:23:10;;;;;;;10.55;3.55;;;9.00;68.90;;;;;;5018094;28;20033;-69
2022/11/10 08:25:37;;;;;;;6.78;3.05;;;8.90;68.60;;;;;;5018342;28;20033;-70
2022/11/10 08:28:06;;;;;;;7.20;2.63;;;9.00;68.20;;;;;;5028742;28;20046;-70
2022/11/10 08:30:34;;;;;;;11.25;2.40;;;9.80;70.40;;;;;;5032980;28;20108;-69
2022/11/10 08:33:01;;;;;;;6.45;1.92;;;10.80;71.50;;;;;;5031261;28;20080;-69
2022/11/10 08:35:29;;;;;;;6.70;1.60;;;11.90;71.40;;;;;;5040170;28;20021;-70
2022/11/10 08:37:55;;;;;;;4.43;1.27;;;13.10;69.60;;;;;;5037760;28;20484;-69
2022/11/10 08:40:23;;;;;;;7.03;1.60;;;14.50;65.20;;;;;;5037897;28;20017;-69
2022/11/10 08:42:59;;;;;;;6.03;1.40;;;15.60;88.10;;;;;;5027573;28;20021;-69
2022/11/10 08:45:25;;;;;;;6.07;1.35;;;15.50;98.00;;;;;;5025252;28;20123;-69
2022/11/10 08:48:03;;;;;;;8.20;1.65;;;16.00;98.00;;;;;;5041172;28;20037;-69
2022/11/10 08:50:28;;;;;;;5.63;1.40;;;15.90;95.40;;;;;;5030973;28;20022;-70
2022/11/10 08:52:54;;;;;;;6.45;2.03;;;16.40;97.50;;;;;;5030521;28;20318;-71
2022/11/10 08:55:20;;;;;;;4.75;1.38;;;16.30;94.60;;;;;;5035191;28;20033;-71
2022/11/10 08:57:49;;;;;;;5.18;1.58;;;16.10;95.10;;;;;;5035539;28;20034;-70
2022/11/10 09:00:17;;;;;;;4.50;1.40;;;16.10;89.60;;;;;;5037642;28;20118;-70
2022/11/10 09:02:43;;;;;;;5.15;1.30;;;14.80;92.40;;;;;;5032521;28;20065;-69
2022/11/10 09:05:09;;;;;;;5.25;1.40;;;13.70;93.90;;;;;;5024605;28;20110;-69
2022/11/10 09:07:48;;;;;;;7.43;1.70;;;12.70;95.40;;;;;;5036289;28;20466;-69
2022/11/10 09:10:17;;;;;;;6.57;1.50;;;12.60;97.70;;;;;;5036328;28;20037;-69
2022/11/10 09:12:43;;;;;;;6.32;1.83;;;12.80;96.70;;;;;;5022609;28;20028;-69
2022/11/10 09:15:09;;;;;;;4.30;1.30;;;12.40;97.60;;;;;;5036701;28;20025;-69
2022/11/10 09:17:36;;;;;;;5.40;1.27;;;13.30;98.00;;;;;;5024519;28;20038;-70
2022/11/10 09:20:03;;;;;;;6.40;1.42;;;13.80;96.60;;;;;;5026569;28;20017;-69
2022/11/10 09:22:29;;;;;;;8.32;1.52;;;13.70;95.70;;;;;;5029251;28;20033;-69
2022/11/10 09:24:54;;;;;;;17.15;2.03;;;14.20;96.60;;;;;;5033552;28;20107;-69
2022/11/10 09:27:20;;;;;;;6.00;1.63;;;15.00;93.30;;;;;;5029564;28;20049;-68
2022/11/10 09:29:45;;;;;;;5.63;1.45;;;16.10;89.30;;;;;;5019336;28;20029;-68
2022/11/10 09:32:11;;;;;;;6.50;1.88;;;17.10;87.60;;;;;;5022920;28;20448;-68
2022/11/10 09:34:37;;;;;;;7.47;1.92;;;17.70;84.30;;;;;;5026107;28;20044;-68
2022/11/10 09:37:02;;;;;;;5.60;1.40;;;17.50;82.00;;;;;;5036442;28;20025;-68
2022/11/10 09:39:28;;;;;;;8.98;1.67;;;16.80;84.30;;;;;;5036431;28;20033;-68
2022/11/10 09:41:54;;;;;;;7.65;1.85;;;16.70;86.40;;;;;;5032326;28;20116;-68
2022/11/10 09:44:38;;;;;;;5.57;1.00;;;16.80;83.70;;;;;;5037558;28;20489;-69
2022/11/10 09:47:15;;;;;;;8.38;1.30;;;16.30;85.00;;;;;;5037372;28;20035;-69
2022/11/10 09:49:59;;;;;;;7.15;1.75;;;15.50;87.20;;;;;;5036033;28;20029;-69
2022/11/10 09:52:28;;;;;;;5.32;1.27;;;14.90;87.10;;;;;;5019412;28;20028;-69
2022/11/10 09:55:04;;;;;;;5.72;1.13;;;14.80;88.60;;;;;;5021572;28;20116;-68
2022/11/10 09:57:30;;;;;;;9.60;1.50;;;15.50;88.50;;;;;;5025914;28;20339;-68
2022/11/10 09:59:56;;;;;;;5.18;1.38;;;15.70;86.60;;;;;;5025427;28;20021;-68
2022/11/10 10:02:52;;;;;;;6.10;1.30;;;15.50;85.70;;;;;;5026873;28;20029;-68
2022/11/10 10:05:56;;;;;;;6.80;1.65;;;15.00;86.70;;;;;;5023422;28;20157;-69
2022/11/10 10:08:37;;;;;;;5.93;1.42;;;14.90;88.50;;;;;;5030252;28;20032;-69
2022/11/10 10:11:34;;;;;;;8.95;1.80;;;13.90;89.10;;;;;;5019096;28;20053;-68
2022/11/10 10:14:22;;;;;;;5.80;1.40;;;13.50;91.90;;;;;;5026982;28;20117;-69
2022/11/10 10:17:15;;;;;;;7.13;1.42;;;14.10;89.70;;;;;;5022142;28;20017;-69
2022/11/10 10:19:56;;;;;;;7.22;1.77;;;15.00;89.50;;;;;;5018286;28;20045;-68
2022/11/10 10:22:36;;;;;;;6.38;1.67;;;15.60;86.50;;;;;;5015028;28;20026;-69
2022/11/10 10:25:15;;;;;;;6.13;1.17;;;15.50;85.40;;;;;;5016342;28;20033;-68
2022/11/10 10:27:45;;;;;;;3.63;0.95;;;15.90;83.60;;;;;;5027131;28;20053;-69
2022/11/10 10:30:17;;;;;;;7.55;1.83;;;16.10;82.70;;;;;;5023373;28;20466;-68
2022/11/10 10:32:43;;;;;;;6.15;1.50;;;16.30;82.50;;;;;;5036663;28;20049;-69
2022/11/10 10:35:16;;;;;;;6.65;1.85;;;16.70;80.40;;;;;;5017735;28;20018;-69
2022/11/10 10:37:55;;;;;;;5.90;1.25;;;16.90;81.70;;;;;;5017921;28;20049;-69
2022/11/10 10:40:23;;;;;;;7.10;1.30;;;17.00;80.20;;;;;;5035483;28;20068;-68
2022/11/10 10:42:49;;;;;;;6.95;1.58;;;16.70;80.60;;;;;;5035058;28;20025;-68
2022/11/10 10:45:22;;;;;;;4.38;1.40;;;16.30;82.30;;;;;;5028109;28;20311;-69
2022/11/10 10:47:50;;;;;;;5.38;1.23;;;16.20;82.90;;;;;;5029466;28;20457;-68
2022/11/10 10:50:36;;;;;;;5.97;1.20;;;16.30;83.10;;;;;;5035265;28;20359;-68
2022/11/10 10:53:11;;;;;;;6.57;1.55;;;16.50;82.90;;;;;;5032114;28;20025;-68
2022/11/10 10:55:43;;;;;;;5.13;1.20;;;16.80;80.10;;;;;;5025377;28;20041;-68
2022/11/10 10:58:44;;;;;;;5.13;1.80;;;16.80;79.50;;;;;;5015904;28;20029;-68
2022/11/10 11:01:15;;;;;;;5.32;1.23;;;16.50;79.60;;;;;;5034066;28;20045;-68
2022/11/10 11:03:42;;;;;;;5.43;1.30;;;16.70;79.40;;;;;;5056123;28;20053;-69
2022/11/10 11:06:15;;;;;;;4.70;1.23;;;17.20;78.40;;;;;;5055975;28;20033;-68
2022/11/10 11:09:07;;;;;;;5.18;1.30;;;17.50;78.20;;;;;;5054889;28;20035;-68
2022/11/10 11:11:38;;;;;;;5.80;1.13;;;17.30;77.50;;;;;;5055747;28;20115;-68
2022/11/10 11:14:25;;;;;;;6.93;1.50;;;16.60;77.70;;;;;;5033128;28;20045;-68
2022/11/10 11:16:58;;;;;;;4.88;1.40;;;16.50;80.10;;;;;;5016095;28;20030;-68
2022/11/10 11:19:28;;;;;;;8.35;1.50;;;16.50;79.00;;;;;;5031841;28;20026;-68
2022/11/10 11:22:12;;;;;;;5.88;1.40;;;16.30;77.20;;;;;;5015118;28;20029;-68
2022/11/10 11:24:44;;;;;;;5.15;1.40;;;16.00;79.60;;;;;;5016056;28;20082;-68
2022/11/10 11:27:36;;;;;;;6.05;1.40;;;16.20;80.20;;;;;;5016030;28;20359;-68
2022/11/10 11:30:37;;;;;;;5.95;1.55;;;16.10;79.10;;;;;;5019460;28;20037;-68
2022/11/10 11:33:14;;;;;;;6.00;1.73;;;16.00;79.80;;;;;;5035680;28;20125;-67
2022/11/10 11:36:08;;;;;;;6.85;1.55;;;16.10;80.10;;;;;;5035860;28;20163;-67
2022/11/10 11:38:41;;;;;;;5.82;1.30;;;16.30;80.10;;;;;;5034517;28;20044;-67
2022/11/10 11:41:13;;;;;;;8.35;1.83;;;16.10;79.70;;;;;;5035732;28;20109;-67
2022/11/10 11:43:53;;;;;;;4.13;1.45;;;15.70;81.40;;;;;;5035803;28;20022;-69
2022/11/10 11:46:27;;;;;;;8.48;1.90;;;15.20;83.00;;;;;;5018596;28;20079;-69
2022/11/10 11:49:20;;;;;;;6.60;1.65;;;15.30;82.90;;;;;;5015701;28;20422;-68
2022/11/10 11:52:00;;;;;;;7.05;1.20;;;15.50;82.80;;;;;;5014746;28;20026;-69
2022/11/10 11:54:31;;;;;;;6.88;1.33;;;15.60;82.70;;;;;;5015903;28;20022;-68
2022/11/10 11:57:21;;;;;;;5.45;1.30;;;15.70;80.70;;;;;;5016352;28;20018;-68
2022/11/10 12:00:11;;;;;;;6.00;1.50;;;15.60;81.30;;;;;;5014785;28;20053;-68
2022/11/10 12:02:56;;;;;;;5.65;1.40;;;15.10;82.80;;;;;;5028956;28;20026;-68
2022/11/10 12:05:35;;;;;;;;;;;15.30;83.10;;;;;;5033111;28;20093;-68
2022/11/10 12:08:33;;;;;;;5.88;1.50;;;15.80;82.60;;;;;;5030403;28;19909;-68
2022/11/10 12:11:23;;;;;;;5.13;1.20;;;15.90;81.30;;;;;;5029600;28;20060;-68
2022/11/10 12:13:54;;;;;;;4.78;1.25;;;16.40;81.20;;;;;;5035571;28;20049;-68
2022/11/10 12:16:30;;;;;;;6.03;1.80;;;16.70;80.20;;;;;;5034547;28;20112;-68
2022/11/10 12:19:02;;;;;;;4.47;1.20;;;16.50;79.60;;;;;;5035429;28;20057;-68
2022/11/10 12:21:33;;;;;;;4.45;1.40;;;16.70;78.90;;;;;;5033908;28;20025;-68
2022/11/10 12:24:07;;;;;;;5.57;1.30;;;17.00;78.30;;;;;;5036278;28;20065;-68
2022/11/10 12:26:48;;;;;;;5.20;1.60;;;16.90;76.90;;;;;;5038865;28;20025;-68
2022/11/10 12:29:36;;;;;;;7.53;1.50;;;16.70;78.40;;;;;;5039013;28;20038;-68
2022/11/10 12:32:14;;;;;;;6.35;1.40;;;16.40;77.60;;;;;;5038806;28;20029;-68
2022/11/10 12:34:46;;;;;;;6.00;1.60;;;16.30;79.30;;;;;;5037315;28;20053;-68
2022/11/10 12:37:30;;;;;;;10.98;2.33;;;16.10;79.00;;;;;;5017738;28;20062;-68
2022/11/10 12:40:14;;;;;;;6.03;1.52;;;15.90;77.90;;;;;;5019199;28;20018;-68
2022/11/10 12:42:42;;;;;;;6.15;1.55;;;15.80;79.30;;;;;;5038677;28;20433;-68
2022/11/10 12:45:16;;;;;;;5.63;1.70;;;15.60;79.20;;;;;;5038656;28;20049;-68
2022/11/10 12:47:45;;;;;;;6.50;1.52;;;15.60;80.80;;;;;;5038638;28;20052;-68
2022/11/10 12:50:31;;;;;;;4.53;1.50;;;15.60;80.00;;;;;;5038668;28;20033;-68
2022/11/10 12:53:04;;;;;;;5.45;1.40;;;15.70;79.60;;;;;;5037389;28;20056;-68
2022/11/10 12:55:42;;;;;;;7.40;1.85;;;15.90;80.40;;;;;;5037520;28;20021;-67
2022/11/10 12:58:12;;;;;;;4.63;2.00;;;15.70;79.00;;;;;;5037425;28;20044;-68
2022/11/10 13:00:53;;;;;;;6.47;1.52;;;15.40;78.70;;;;;;5038555;28;20041;-67
2022/11/10 13:03:31;;;;;;;5.45;1.75;;;15.20;80.20;;;;;;5037948;28;20060;-68
2022/11/10 13:06:02;;;;;;;7.07;2.53;;;15.20;81.10;;;;;;5038470;28;20029;-68
2022/11/10 13:08:34;;;;;;;10.43;2.40;;;15.40;80.40;;;;;;5037208;28;20055;-69
2022/11/10 13:11:18;;;;;;;5.20;1.30;;;15.40;81.20;;;;;;5038145;28;20402;-68
2022/11/10 13:13:55;;;;;;;10.52;2.60;;;15.50;80.00;;;;;;5025511;28;20022;-68
2022/11/10 13:16:48;;;;;;;5.78;1.48;;;15.60;80.50;;;;;;5018499;28;20033;-68